Time;durP1;ratioP1;P1;durP2;ratioP2;P2;SDS_P1;SDS_P2;PMS_P1;PMS_P2;Temp;Humidity;BMP_temperature;BMP_pressure;BME280_temperature;BME280_humidity;BME280_pressure;Samples;Min_cycle;Max_cycle;Signal;HPM_P1;HPM_P2
2024/02/19 00:01:51;;;;;;;7.55;4.68;;;9.60;99.90;;;;;;5064712;28;20117;-68
2024/02/19 00:04:17;;;;;;;5.38;3.85;;;9.60;99.90;;;;;;5083981;28;20039;-68
2024/02/19 00:06:43;;;;;;;5.88;4.45;;;9.60;99.90;;;;;;5069385;28;20028;-66
2024/02/19 00:09:08;;;;;;;6.47;4.05;;;9.60;99.90;;;;;;5095161;28;20026;-68
2024/02/19 00:11:34;;;;;;;6.43;4.35;;;9.60;99.90;;;;;;5088308;28;20044;-67
2024/02/19 00:13:59;;;;;;;7.10;4.72;;;9.60;99.90;;;;;;5088358;28;20043;-68
2024/02/19 00:16:25;;;;;;;7.93;5.45;;;9.50;99.90;;;;;;5076131;28;20392;-68
2024/02/19 00:18:51;;;;;;;8.27;5.32;;;9.50;99.90;;;;;;5086205;28;20038;-68
2024/02/19 00:21:17;;;;;;;8.27;5.15;;;9.50;99.90;;;;;;5085073;28;20069;-70
2024/02/19 00:23:42;;;;;;;9.68;5.88;;;9.50;99.90;;;;;;5067168;28;20181;-67
2024/02/19 00:26:08;;;;;;;10.13;6.40;;;9.50;99.90;;;;;;5081154;28;20035;-67
2024/02/19 00:28:33;;;;;;;9.68;5.88;;;9.50;99.90;;;;;;5078720;28;20043;-68
2024/02/19 00:30:59;;;;;;;8.40;5.20;;;9.50;99.90;;;;;;5065620;28;20036;-68
2024/02/19 00:33:24;;;;;;;8.70;5.60;;;9.50;99.90;;;;;;5084801;28;20024;-67
2024/02/19 00:35:50;;;;;;;8.18;5.45;;;9.50;99.90;;;;;;5064670;28;20044;-68
2024/02/19 00:38:17;;;;;;;7.43;4.53;;;9.40;99.90;;;;;;5084552;28;20024;-68
2024/02/19 00:40:43;;;;;;;10.57;5.03;;;9.40;99.90;;;;;;5081197;28;20448;-67
2024/02/19 00:43:09;;;;;;;6.45;4.20;;;9.40;99.90;;;;;;5064865;28;20047;-68
2024/02/19 00:45:34;;;;;;;8.18;4.43;;;9.40;99.90;;;;;;5078844;28;20035;-68
2024/02/19 00:48:00;;;;;;;6.43;3.92;;;9.50;99.90;;;;;;5083616;28;20055;-68
2024/02/19 00:50:25;;;;;;;5.80;3.78;;;9.40;99.90;;;;;;5077036;28;20106;-68
2024/02/19 00:52:51;;;;;;;7.80;4.40;;;9.40;99.90;;;;;;5077637;28;20448;-68
2024/02/19 00:55:21;;;;;;;6.38;3.75;;;9.40;99.90;;;;;;5068674;28;20517;-68
2024/02/19 00:57:47;;;;;;;6.30;3.67;;;9.40;99.90;;;;;;5068076;28;20509;-67
2024/02/19 01:00:13;;;;;;;8.05;4.60;;;9.40;99.90;;;;;;5081543;28;20016;-68
2024/02/19 01:02:39;;;;;;;4.57;3.20;;;9.40;99.90;;;;;;5080635;28;20450;-68
2024/02/19 01:05:05;;;;;;;5.63;3.80;;;9.40;99.90;;;;;;5066632;28;20463;-68
2024/02/19 01:07:30;;;;;;;5.40;3.50;;;9.40;99.90;;;;;;5073828;28;20066;-68
2024/02/19 01:09:56;;;;;;;4.22;3.05;;;9.40;99.90;;;;;;5076762;28;20043;-68
2024/02/19 01:12:22;;;;;;;5.75;3.53;;;9.50;99.90;;;;;;5084283;28;20395;-68
2024/02/19 01:14:47;;;;;;;4.53;3.53;;;9.40;99.90;;;;;;5079015;28;20086;-67
2024/02/19 01:17:13;;;;;;;5.95;3.65;;;9.40;99.90;;;;;;5066761;28;20161;-66
2024/02/19 01:19:39;;;;;;;5.65;3.70;;;9.40;99.90;;;;;;5082148;28;20039;-68
2024/02/19 01:22:05;;;;;;;6.03;4.05;;;9.40;99.90;;;;;;5064321;28;20040;-68
2024/02/19 01:24:33;;;;;;;6.47;3.95;;;9.40;99.90;;;;;;5061603;28;20073;-67
2024/02/19 01:26:59;;;;;;;7.07;3.53;;;9.40;99.90;;;;;;5064086;28;20040;-69
2024/02/19 01:29:25;;;;;;;4.57;3.75;;;9.40;99.90;;;;;;5062984;28;20512;-68
2024/02/19 01:31:51;;;;;;;6.22;4.30;;;9.40;99.90;;;;;;5078736;28;20086;-69
2024/02/19 01:34:18;;;;;;;7.88;4.55;;;9.40;99.90;;;;;;5079066;28;20040;-67
2024/02/19 01:36:46;;;;;;;4.97;3.85;;;9.40;99.90;;;;;;5063147;28;20369;-67
2024/02/19 01:39:12;;;;;;;4.68;3.22;;;9.30;99.90;;;;;;5084513;28;20145;-67
2024/02/19 01:41:38;;;;;;;6.57;2.00;;;9.30;99.90;;;;;;5065564;28;20028;-68
2024/02/19 01:44:04;;;;;;;1.25;0.90;;;9.30;99.90;;;;;;5082235;28;20039;-67
2024/02/19 01:46:31;;;;;;;2.90;0.85;;;9.30;99.90;;;;;;5076510;28;20046;-67
2024/02/19 01:48:57;;;;;;;1.27;1.10;;;9.20;99.90;;;;;;5062076;28;20024;-67
2024/02/19 01:51:23;;;;;;;0.52;0.52;;;9.20;99.90;;;;;;5059865;28;20028;-68
2024/02/19 01:53:52;;;;;;;1.02;0.93;;;9.20;99.90;;;;;;5075521;28;20039;-67
2024/02/19 01:56:18;;;;;;;0.60;0.60;;;9.00;99.90;;;;;;5084628;28;20032;-68
2024/02/19 01:58:45;;;;;;;0.30;0.30;;;9.00;99.90;;;;;;5080688;28;20036;-68
2024/02/19 02:01:12;;;;;;;0.57;0.52;;;8.90;99.90;;;;;;5080254;28;20032;-67
2024/02/19 02:03:39;;;;;;;0.40;0.40;;;8.90;99.90;;;;;;5080917;28;20501;-67
2024/02/19 02:06:05;;;;;;;0.40;0.40;;;8.90;99.90;;;;;;5064251;28;20066;-67
2024/02/19 02:08:31;;;;;;;1.65;0.30;;;8.80;99.90;;;;;;5083405;28;20042;-69
2024/02/19 02:10:57;;;;;;;0.30;0.30;;;8.80;99.90;;;;;;5084226;28;20405;-67
2024/02/19 02:13:22;;;;;;;0.65;0.30;;;8.80;99.90;;;;;;5078946;28;20089;-67
2024/02/19 02:15:48;;;;;;;0.30;0.30;;;8.70;99.90;;;;;;5076896;28;20069;-68
2024/02/19 02:18:15;;;;;;;0.10;0.10;;;8.70;99.90;;;;;;5084158;28;20081;-68
2024/02/19 02:20:42;;;;;;;0.10;0.10;;;8.70;99.90;;;;;;5080863;28;20040;-68
2024/02/19 02:23:07;;;;;;;0.38;0.10;;;8.60;99.90;;;;;;5081627;28;20036;-68
2024/02/19 02:25:33;;;;;;;1.52;0.10;;;8.60;99.90;;;;;;5080017;28;20032;-68
2024/02/19 02:27:59;;;;;;;0.70;0.40;;;8.60;99.90;;;;;;5080901;28;20512;-68
2024/02/19 02:30:25;;;;;;;0.30;0.30;;;8.50;99.90;;;;;;5077978;28;20031;-69
2024/02/19 02:32:55;;;;;;;0.70;0.70;;;8.50;99.90;;;;;;5075727;28;20127;-67
2024/02/19 02:35:22;;;;;;;2.08;0.98;;;8.50;99.90;;;;;;5081182;28;20025;-66
2024/02/19 02:37:48;;;;;;;1.60;1.13;;;8.40;99.90;;;;;;5083065;28;20465;-68
2024/02/19 02:40:13;;;;;;;4.15;1.38;;;8.40;99.90;;;;;;5084689;28;20059;-67
2024/02/19 02:42:39;;;;;;;1.77;1.25;;;8.40;99.90;;;;;;5084075;28;20075;-68
2024/02/19 02:45:05;;;;;;;1.80;1.10;;;8.40;99.90;;;;;;5085691;28;20028;-67
2024/02/19 02:47:31;;;;;;;1.85;1.02;;;8.40;99.90;;;;;;5076560;28;20037;-68
2024/02/19 02:49:56;;;;;;;3.75;0.93;;;8.40;99.90;;;;;;5083307;28;20741;-68
2024/02/19 02:52:22;;;;;;;1.55;0.88;;;8.40;99.90;;;;;;5080293;28;20060;-67
2024/02/19 02:54:47;;;;;;;0.68;0.50;;;8.40;99.90;;;;;;5080822;28;20078;-68
2024/02/19 02:57:13;;;;;;;1.52;0.35;;;8.40;99.90;;;;;;5059320;28;20449;-67
2024/02/19 02:59:38;;;;;;;0.80;0.40;;;8.40;99.90;;;;;;5063923;28;20040;-67
2024/02/19 03:02:04;;;;;;;1.15;0.17;;;8.40;99.90;;;;;;5078909;28;20056;-67
2024/02/19 03:04:30;;;;;;;0.65;0.30;;;8.40;99.90;;;;;;5077098;28;20495;-67
2024/02/19 03:06:55;;;;;;;0.32;0.20;;;8.40;99.90;;;;;;5061096;28;20032;-67
2024/02/19 03:09:21;;;;;;;4.38;0.28;;;8.40;99.90;;;;;;5079439;28;20143;-68
2024/02/19 03:11:46;;;;;;;2.15;0.30;;;8.40;99.90;;;;;;5083490;28;20606;-67
2024/02/19 03:14:13;;;;;;;0.13;0.10;;;8.40;99.90;;;;;;5087318;28;20063;-68
2024/02/19 03:16:40;;;;;;;;;;;8.40;99.90;;;;;;5081504;28;20516;-67
2024/02/19 03:19:09;;;;;;;0.45;0.22;;;8.40;99.90;;;;;;5083934;28;19951;-67
2024/02/19 03:21:36;;;;;;;0.47;0.10;;;8.30;99.90;;;;;;5078038;28;20023;-67
2024/02/19 03:24:02;;;;;;;2.30;0.20;;;8.30;99.90;;;;;;5081452;28;20112;-68
2024/02/19 03:26:27;;;;;;;1.85;0.00;;;8.30;99.90;;;;;;5078074;28;20127;-67
2024/02/19 03:28:53;;;;;;;0.20;0.13;;;8.30;99.90;;;;;;5078574;28;20504;-67
2024/02/19 03:31:19;;;;;;;1.00;0.43;;;8.30;99.90;;;;;;5066485;28;20627;-67
2024/02/19 03:33:46;;;;;;;0.70;0.13;;;8.20;99.90;;;;;;5081945;28;20012;-68
2024/02/19 03:36:12;;;;;;;1.95;0.10;;;8.20;99.90;;;;;;5079368;28;20027;-67
2024/02/19 03:38:38;;;;;;;1.50;0.30;;;8.20;99.90;;;;;;5067884;28;20028;-69
2024/02/19 03:41:04;;;;;;;1.45;0.22;;;8.20;99.90;;;;;;5083811;28;20048;-67
2024/02/19 03:43:31;;;;;;;0.80;0.35;;;8.20;99.90;;;;;;5092837;28;20031;-68
2024/02/19 03:45:57;;;;;;;7.18;0.57;;;8.20;99.90;;;;;;5085404;28;20075;-67
2024/02/19 03:48:22;;;;;;;3.15;0.55;;;8.10;99.90;;;;;;5087703;28;20484;-68
2024/02/19 03:50:48;;;;;;;1.67;0.30;;;8.10;99.90;;;;;;5085193;28;20040;-66
2024/02/19 03:53:14;;;;;;;1.02;0.20;;;8.10;99.90;;;;;;5071850;28;20036;-67
2024/02/19 03:55:39;;;;;;;0.47;0.30;;;8.10;99.90;;;;;;5083487;28;20038;-67
2024/02/19 03:58:05;;;;;;;2.85;0.52;;;8.00;99.90;;;;;;5085824;28;20515;-67
2024/02/19 04:00:31;;;;;;;1.45;0.55;;;8.00;99.90;;;;;;5085323;28;20052;-67
2024/02/19 04:02:56;;;;;;;4.35;0.50;;;8.00;99.90;;;;;;5084702;28;20048;-67
2024/02/19 04:05:22;;;;;;;2.75;0.40;;;8.00;99.90;;;;;;5067338;28;20028;-68
2024/02/19 04:07:48;;;;;;;6.68;0.90;;;8.00;99.90;;;;;;5081643;28;20120;-67
2024/02/19 04:10:13;;;;;;;3.28;0.40;;;8.00;99.90;;;;;;5085894;28;20058;-68
2024/02/19 04:12:39;;;;;;;1.60;0.30;;;8.00;99.90;;;;;;5089715;28;20116;-67
2024/02/19 04:15:05;;;;;;;0.50;0.30;;;8.00;99.90;;;;;;5084356;28;20845;-69
2024/02/19 04:17:33;;;;;;;1.25;0.43;;;8.00;99.90;;;;;;5082574;28;20035;-68
2024/02/19 04:19:58;;;;;;;0.40;0.22;;;8.00;99.90;;;;;;5083985;28;20043;-66
2024/02/19 04:22:24;;;;;;;1.35;0.35;;;8.00;99.90;;;;;;5085100;28;20040;-67
2024/02/19 04:24:50;;;;;;;1.13;0.40;;;8.00;99.90;;;;;;5082341;28;20066;-67
2024/02/19 04:27:17;;;;;;;1.45;0.10;;;8.00;99.90;;;;;;5084002;28;20111;-68
2024/02/19 04:29:43;;;;;;;2.80;0.13;;;7.90;99.90;;;;;;5065501;28;20388;-67
2024/02/19 04:32:09;;;;;;;1.50;0.25;;;8.00;99.90;;;;;;5084345;28;20276;-68
2024/02/19 04:34:35;;;;;;;2.53;0.43;;;8.00;99.90;;;;;;5081151;28;20032;-66
2024/02/19 04:37:06;;;;;;;2.47;0.40;;;7.90;99.90;;;;;;5086654;28;20743;-67
2024/02/19 04:39:33;;;;;;;2.67;0.57;;;7.90;99.90;;;;;;5066698;28;20032;-69
2024/02/19 04:42:02;;;;;;;0.43;0.35;;;7.90;99.90;;;;;;5084518;28;20436;-66
2024/02/19 04:44:27;;;;;;;0.57;0.43;;;8.00;99.90;;;;;;5084147;28;20059;-68
2024/02/19 04:46:53;;;;;;;2.88;0.52;;;7.90;99.90;;;;;;5083957;28;20097;-67
2024/02/19 04:49:18;;;;;;;1.73;0.20;;;7.90;99.90;;;;;;5062526;28;20036;-67
2024/02/19 04:51:44;;;;;;;0.75;0.28;;;7.90;99.90;;;;;;5079930;28;20040;-68
2024/02/19 04:54:10;;;;;;;1.42;0.10;;;7.90;99.90;;;;;;5080513;28;20032;-68
2024/02/19 04:56:35;;;;;;;0.95;0.40;;;7.90;99.90;;;;;;5062520;28;20039;-68
2024/02/19 04:59:02;;;;;;;1.38;0.20;;;7.90;99.90;;;;;;5078789;28;20631;-67
2024/02/19 05:01:31;;;;;;;0.80;0.28;;;7.90;99.90;;;;;;5078814;28;20112;-67
2024/02/19 05:03:57;;;;;;;1.15;0.70;;;7.90;99.90;;;;;;5078984;28;20029;-67
2024/02/19 05:06:23;;;;;;;1.95;0.60;;;7.90;99.90;;;;;;5083022;28;20538;-67
2024/02/19 05:08:49;;;;;;;1.60;0.60;;;7.90;99.90;;;;;;5078546;28;20036;-66
2024/02/19 05:11:14;;;;;;;2.88;0.43;;;7.90;99.90;;;;;;5084987;28;20048;-68
2024/02/19 05:13:40;;;;;;;2.10;0.50;;;7.90;99.90;;;;;;5087857;28;20047;-67
2024/02/19 05:16:06;;;;;;;0.88;0.50;;;7.90;99.90;;;;;;5082300;28;20546;-68
2024/02/19 05:18:32;;;;;;;0.60;0.60;;;7.90;99.90;;;;;;5083792;28;20028;-67
2024/02/19 05:20:57;;;;;;;1.58;0.73;;;7.90;99.90;;;;;;5078941;28;20051;-67
2024/02/19 05:23:23;;;;;;;0.70;0.52;;;7.90;99.90;;;;;;5079345;28;21077;-67
2024/02/19 05:25:48;;;;;;;3.72;0.98;;;7.90;99.90;;;;;;5080857;28;20033;-68
2024/02/19 05:28:14;;;;;;;2.92;0.98;;;7.90;99.90;;;;;;5081740;28;20428;-67
2024/02/19 05:30:40;;;;;;;1.27;1.10;;;7.90;99.90;;;;;;5081141;28;20036;-67
2024/02/19 05:33:05;;;;;;;4.00;1.42;;;7.90;99.90;;;;;;5076977;28;20126;-66
2024/02/19 05:35:31;;;;;;;2.28;1.52;;;7.90;99.90;;;;;;5076111;28;20532;-67
2024/02/19 05:37:56;;;;;;;3.45;1.83;;;8.00;99.90;;;;;;5061467;28;20033;-66
2024/02/19 05:40:22;;;;;;;2.63;2.03;;;7.90;99.90;;;;;;5086136;28;20036;-67
2024/02/19 05:42:48;;;;;;;3.58;2.40;;;8.00;99.90;;;;;;5076841;28;20055;-68
2024/02/19 05:45:13;;;;;;;3.38;2.30;;;8.00;99.90;;;;;;5085134;28;20625;-67
2024/02/19 05:47:39;;;;;;;3.38;1.98;;;8.00;99.90;;;;;;5079259;28;20054;-68
2024/02/19 05:50:06;;;;;;;3.53;2.30;;;8.00;99.90;;;;;;5079400;28;20060;-68
2024/02/19 05:52:31;;;;;;;6.65;2.78;;;8.00;99.90;;;;;;5079434;28;20032;-66
2024/02/19 05:54:58;;;;;;;3.03;2.13;;;8.00;99.90;;;;;;5083015;28;20160;-67
2024/02/19 05:57:25;;;;;;;3.60;2.25;;;8.00;99.90;;;;;;5081236;28;20035;-68
2024/02/19 05:59:50;;;;;;;2.80;2.10;;;8.00;99.90;;;;;;5079753;28;20058;-67
2024/02/19 06:02:16;;;;;;;3.13;2.28;;;8.10;99.90;;;;;;5059754;28;20068;-67
2024/02/19 06:04:41;;;;;;;4.93;2.65;;;8.00;99.90;;;;;;5077425;28;20032;-68
2024/02/19 06:07:07;;;;;;;3.33;2.28;;;8.10;99.90;;;;;;5078488;28;20046;-67
2024/02/19 06:09:32;;;;;;;3.50;2.30;;;8.10;99.90;;;;;;5077000;28;21067;-67
2024/02/19 06:11:58;;;;;;;2.80;1.80;;;8.10;99.90;;;;;;5068846;28;20054;-67
2024/02/19 06:14:26;;;;;;;3.33;2.08;;;8.10;99.90;;;;;;5086870;28;20060;-67
2024/02/19 06:16:51;;;;;;;4.38;2.40;;;8.10;99.90;;;;;;5078111;28;20039;-67
2024/02/19 06:19:17;;;;;;;2.80;2.28;;;8.10;99.90;;;;;;5062513;28;20033;-67
2024/02/19 06:21:43;;;;;;;2.92;2.08;;;8.10;99.90;;;;;;5060684;28;22658;-66
2024/02/19 06:24:09;;;;;;;6.63;2.60;;;8.20;99.90;;;;;;5079613;28;20473;-67
2024/02/19 06:26:35;;;;;;;7.68;2.30;;;8.10;99.90;;;;;;5081098;28;20116;-68
2024/02/19 06:29:01;;;;;;;3.75;1.83;;;8.10;99.90;;;;;;5072027;28;20113;-67
2024/02/19 06:31:27;;;;;;;6.00;2.65;;;8.10;99.90;;;;;;5072800;28;20070;-66
2024/02/19 06:33:54;;;;;;;4.82;2.42;;;8.10;99.90;;;;;;5078814;28;20020;-67
2024/02/19 06:36:20;;;;;;;5.07;2.78;;;8.20;99.90;;;;;;5082377;28;20031;-67
2024/02/19 06:38:46;;;;;;;2.80;2.05;;;8.20;99.90;;;;;;5076476;28;20050;-67
2024/02/19 06:41:12;;;;;;;4.53;2.08;;;8.20;99.90;;;;;;5063575;28;20032;-67
2024/02/19 06:43:37;;;;;;;4.50;2.72;;;8.20;99.90;;;;;;5077203;28;20044;-67
2024/02/19 06:46:03;;;;;;;6.00;3.03;;;8.20;99.90;;;;;;5076364;28;20047;-67
2024/02/19 06:48:29;;;;;;;5.40;3.28;;;8.30;99.90;;;;;;5061072;28;20024;-67
2024/02/19 06:50:54;;;;;;;4.88;3.40;;;8.20;99.90;;;;;;5076554;28;20050;-71
2024/02/19 06:53:20;;;;;;;5.90;3.17;;;8.30;99.90;;;;;;5080964;28;20054;-67
2024/02/19 06:55:45;;;;;;;6.55;3.75;;;8.30;99.90;;;;;;5082743;28;20031;-66
2024/02/19 06:58:11;;;;;;;5.63;3.50;;;8.30;99.90;;;;;;5078398;28;20460;-67
2024/02/19 07:00:37;;;;;;;6.18;3.38;;;8.30;99.90;;;;;;5074671;28;20047;-67
2024/02/19 07:03:02;;;;;;;7.13;4.18;;;8.40;99.90;;;;;;5082494;28;20556;-68
2024/02/19 07:05:28;;;;;;;8.10;4.47;;;8.30;99.90;;;;;;5081163;28;20787;-67
2024/02/19 07:07:54;;;;;;;8.35;3.45;;;8.40;99.90;;;;;;5081908;28;20504;-67
2024/02/19 07:10:19;;;;;;;5.97;3.78;;;8.40;99.90;;;;;;5083235;28;20044;-67
2024/02/19 07:12:45;;;;;;;9.32;3.22;;;8.40;99.90;;;;;;5060873;28;20408;-68
2024/02/19 07:15:12;;;;;;;5.80;3.80;;;8.40;99.90;;;;;;5085816;28;20012;-67
2024/02/19 07:17:38;;;;;;;5.03;3.00;;;8.40;99.90;;;;;;5082115;28;20031;-68
2024/02/19 07:20:03;;;;;;;8.80;4.78;;;8.40;99.90;;;;;;5081209;28;20036;-67
2024/02/19 07:22:29;;;;;;;7.22;3.28;;;8.40;99.90;;;;;;5076416;28;20036;-68
2024/02/19 07:24:55;;;;;;;6.63;3.00;;;8.40;99.90;;;;;;5064310;28;20020;-67
2024/02/19 07:27:21;;;;;;;7.07;3.45;;;8.40;99.90;;;;;;5067167;28;20108;-67
2024/02/19 07:29:47;;;;;;;4.97;3.15;;;8.40;99.90;;;;;;5079885;28;20090;-67
2024/02/19 07:32:13;;;;;;;7.10;3.33;;;8.40;99.90;;;;;;5078457;28;20028;-67
2024/02/19 07:34:38;;;;;;;5.82;2.88;;;8.40;99.90;;;;;;5076522;28;20032;-68
2024/02/19 07:37:04;;;;;;;4.82;2.88;;;8.40;99.90;;;;;;5053618;28;20119;-68
2024/02/19 07:39:30;;;;;;;7.18;2.78;;;8.50;99.90;;;;;;5068694;28;20056;-67
2024/02/19 07:41:55;;;;;;;4.57;2.83;;;8.50;99.90;;;;;;5050353;28;20681;-68
2024/02/19 07:44:21;;;;;;;6.00;2.90;;;8.50;99.90;;;;;;5070630;28;20025;-68
2024/02/19 07:46:47;;;;;;;6.10;2.53;;;8.50;99.90;;;;;;5050213;28;20048;-68
2024/02/19 07:49:13;;;;;;;4.00;2.65;;;8.50;99.90;;;;;;5068039;28;20459;-66
2024/02/19 07:51:38;;;;;;;4.55;2.70;;;8.50;99.90;;;;;;5067633;28;20047;-69
2024/02/19 07:54:04;;;;;;;4.68;3.20;;;8.60;99.90;;;;;;5068682;28;20055;-67
2024/02/19 07:56:30;;;;;;;7.57;3.28;;;8.60;99.90;;;;;;5075384;28;20592;-68
2024/02/19 07:58:55;;;;;;;7.22;3.28;;;8.60;99.90;;;;;;5079944;28;20181;-66
2024/02/19 08:01:21;;;;;;;6.38;2.75;;;8.60;99.90;;;;;;5081116;28;20539;-67
2024/02/19 08:03:47;;;;;;;5.05;2.65;;;8.60;99.90;;;;;;5082513;28;20404;-67
2024/02/19 08:06:12;;;;;;;12.13;3.03;;;8.60;99.90;;;;;;5076057;28;20036;-67
2024/02/19 08:08:38;;;;;;;4.35;2.63;;;8.60;99.90;;;;;;5075970;28;20044;-68
2024/02/19 08:11:03;;;;;;;5.07;3.22;;;8.70;99.90;;;;;;5071756;28;20040;-67
2024/02/19 08:13:29;;;;;;;6.60;3.20;;;8.70;99.90;;;;;;5078640;28;20485;-67
2024/02/19 08:15:55;;;;;;;5.80;2.45;;;8.70;99.90;;;;;;5078108;28;20043;-67
2024/02/19 08:18:20;;;;;;;5.53;2.03;;;8.70;99.90;;;;;;5082527;28;20404;-67
2024/02/19 08:20:47;;;;;;;6.22;2.58;;;8.70;99.90;;;;;;5077640;28;20028;-67
2024/02/19 08:23:13;;;;;;;7.57;2.97;;;8.70;99.90;;;;;;5079171;28;20024;-66
2024/02/19 08:25:39;;;;;;;7.35;3.28;;;8.70;99.90;;;;;;5078213;28;20048;-67
2024/02/19 08:28:05;;;;;;;6.60;2.80;;;8.70;99.90;;;;;;5079221;28;20039;-68
2024/02/19 08:30:31;;;;;;;6.30;2.70;;;8.80;99.90;;;;;;5067279;28;20073;-68
2024/02/19 08:32:57;;;;;;;6.97;2.50;;;8.80;99.90;;;;;;5081991;28;20127;-69
2024/02/19 08:35:22;;;;;;;5.10;2.42;;;8.80;99.90;;;;;;5082252;28;20040;-67
2024/02/19 08:37:48;;;;;;;6.82;2.75;;;8.80;99.90;;;;;;5080487;28;20043;-69
2024/02/19 08:40:14;;;;;;;8.85;2.97;;;8.80;99.90;;;;;;5064672;28;20024;-67
2024/02/19 08:42:39;;;;;;;9.55;2.75;;;8.80;99.90;;;;;;5081057;28;20494;-67
2024/02/19 08:45:05;;;;;;;10.40;2.80;;;8.90;99.90;;;;;;5082425;28;20031;-68
2024/02/19 08:47:32;;;;;;;6.38;2.20;;;8.80;99.90;;;;;;5064976;28;20525;-67
2024/02/19 08:49:58;;;;;;;5.80;2.33;;;8.90;99.90;;;;;;5081749;28;20044;-67
2024/02/19 08:52:23;;;;;;;7.78;2.13;;;8.80;99.90;;;;;;5080680;28;20132;-67
2024/02/19 08:54:49;;;;;;;6.13;2.22;;;8.90;99.90;;;;;;5077235;28;20032;-67
2024/02/19 08:57:16;;;;;;;9.60;2.28;;;8.90;99.90;;;;;;5080488;28;20020;-66
2024/02/19 08:59:45;;;;;;;7.55;1.83;;;8.90;99.90;;;;;;5083209;28;20059;-68
2024/02/19 09:02:14;;;;;;;5.00;1.98;;;8.90;99.90;;;;;;5082715;28;20473;-67
2024/02/19 09:04:43;;;;;;;5.53;1.58;;;8.90;99.90;;;;;;5083698;28;20040;-67
2024/02/19 09:07:10;;;;;;;5.03;1.40;;;9.00;99.90;;;;;;5080651;28;20040;-66
2024/02/19 09:09:36;;;;;;;2.92;1.67;;;9.00;99.90;;;;;;5083117;28;20054;-67
2024/02/19 09:12:02;;;;;;;5.03;1.98;;;9.00;99.90;;;;;;5060411;28;20171;-67
2024/02/19 09:14:28;;;;;;;6.88;2.03;;;9.10;99.90;;;;;;5081730;28;20094;-67
2024/02/19 09:16:56;;;;;;;7.30;1.70;;;9.10;99.90;;;;;;5083253;28;20769;-67
2024/02/19 09:19:22;;;;;;;5.15;2.00;;;9.10;99.90;;;;;;5083523;28;20064;-68
2024/02/19 09:21:47;;;;;;;7.57;2.20;;;9.10;99.90;;;;;;5081246;28;20051;-66
2024/02/19 09:24:13;;;;;;;8.07;2.40;;;9.10;99.90;;;;;;5081543;28;20012;-67
2024/02/19 09:26:39;;;;;;;6.50;2.28;;;9.20;99.90;;;;;;5085608;28;20036;-67
2024/02/19 09:29:04;;;;;;;9.80;2.53;;;9.20;99.90;;;;;;5085505;28;20063;-67
2024/02/19 09:31:30;;;;;;;6.25;2.00;;;9.20;99.90;;;;;;5081389;28;20056;-67
2024/02/19 09:33:55;;;;;;;7.75;2.53;;;9.20;99.90;;;;;;5067912;28;20028;-67
2024/02/19 09:36:21;;;;;;;7.22;2.70;;;9.30;99.90;;;;;;5078203;28;20739;-68
2024/02/19 09:38:47;;;;;;;7.30;2.72;;;9.30;99.90;;;;;;5062958;28;20111;-68
2024/02/19 09:41:13;;;;;;;8.73;2.50;;;9.30;99.90;;;;;;5080678;28;20077;-67
2024/02/19 09:43:40;;;;;;;11.07;3.72;;;9.30;99.90;;;;;;5078300;28;20512;-67
2024/02/19 09:46:15;;;;;;;14.05;3.35;;;9.40;99.90;;;;;;5063691;28;20036;-67
2024/02/19 09:48:44;;;;;;;8.18;3.05;;;9.40;99.90;;;;;;5080570;28;20106;-68
2024/02/19 09:51:13;;;;;;;13.82;2.85;;;9.40;99.90;;;;;;5078947;28;20063;-68
2024/02/19 09:53:40;;;;;;;13.43;2.78;;;9.50;99.90;;;;;;5057146;28;20063;-67
2024/02/19 09:56:07;;;;;;;9.32;2.72;;;9.60;99.90;;;;;;5064873;28;20043;-68
2024/02/19 09:58:33;;;;;;;8.63;2.63;;;9.60;99.90;;;;;;5080913;28;20106;-67
2024/02/19 10:00:58;;;;;;;12.73;2.92;;;9.60;99.90;;;;;;5080028;28;20485;-67
2024/02/19 10:03:26;;;;;;;15.40;5.43;;;9.70;99.90;;;;;;5083878;28;20036;-68
2024/02/19 10:05:51;;;;;;;9.57;3.05;;;9.80;99.90;;;;;;5065410;28;20754;-67
2024/02/19 10:08:17;;;;;;;11.45;3.70;;;9.90;99.90;;;;;;5079502;28;20108;-66
2024/02/19 10:10:53;;;;;;;16.73;3.60;;;10.00;99.90;;;;;;5080400;28;20117;-67
2024/02/19 10:13:20;;;;;;;12.40;3.35;;;10.10;99.90;;;;;;5062728;28;20376;-67
2024/02/19 10:15:46;;;;;;;7.70;2.40;;;10.20;99.90;;;;;;5062655;28;20020;-66
2024/02/19 10:18:17;;;;;;;6.32;2.13;;;10.30;99.90;;;;;;5067682;28;20047;-67
2024/02/19 10:20:52;;;;;;;12.52;2.65;;;10.40;99.90;;;;;;5085171;28;20103;-68
2024/02/19 10:23:19;;;;;;;12.02;2.80;;;10.50;99.90;;;;;;5064848;28;20029;-66
2024/02/19 10:25:45;;;;;;;14.52;2.58;;;10.70;99.90;;;;;;5079473;28;20040;-67
2024/02/19 10:28:11;;;;;;;14.15;2.55;;;10.80;99.90;;;;;;5075751;28;20028;-67
2024/02/19 10:30:37;;;;;;;13.00;2.85;;;11.00;99.90;;;;;;5080758;28;20054;-67
2024/02/19 10:33:04;;;;;;;12.30;2.65;;;11.20;99.90;;;;;;5080628;28;20089;-67
2024/02/19 10:35:31;;;;;;;9.48;2.22;;;11.20;99.90;;;;;;5079407;28;20047;-68
2024/02/19 10:37:59;;;;;;;14.93;2.20;;;11.30;99.90;;;;;;5061995;28;20120;-67
2024/02/19 10:40:28;;;;;;;12.00;2.72;;;11.20;99.90;;;;;;5077743;28;20738;-68
2024/02/19 10:42:55;;;;;;;8.15;2.53;;;11.20;99.90;;;;;;5075410;28;20032;-67
2024/02/19 10:45:22;;;;;;;13.07;2.33;;;11.20;99.90;;;;;;5065043;28;20555;-66
2024/02/19 10:47:49;;;;;;;9.35;2.03;;;11.20;99.90;;;;;;5077821;28;20037;-68
2024/02/19 10:50:18;;;;;;;10.25;2.13;;;11.20;99.90;;;;;;5060549;28;20049;-67
2024/02/19 10:52:47;;;;;;;14.32;1.98;;;11.30;99.90;;;;;;5065638;28;20119;-67
2024/02/19 10:55:15;;;;;;;12.70;1.75;;;11.50;99.90;;;;;;5074837;28;20070;-66
2024/02/19 10:58:16;;;;;;;12.90;2.05;;;11.50;99.90;;;;;;5080121;28;20028;-67
2024/02/19 11:00:43;;;;;;;8.15;1.42;;;11.60;99.90;;;;;;5080474;28;20031;-67
2024/02/19 11:03:10;;;;;;;6.13;1.60;;;11.60;99.90;;;;;;5078047;28;20028;-67
2024/02/19 11:05:45;;;;;;;8.57;1.63;;;11.60;99.90;;;;;;5076816;28;20024;-67
2024/02/19 11:08:23;;;;;;;6.25;1.40;;;11.60;99.90;;;;;;5078703;28;20047;-68
2024/02/19 11:10:54;;;;;;;9.70;1.35;;;11.60;99.90;;;;;;5081260;28;20504;-70
2024/02/19 11:13:25;;;;;;;11.45;1.92;;;11.60;99.90;;;;;;5077130;28;20433;-68
2024/02/19 11:15:51;;;;;;;17.75;2.28;;;11.70;99.90;;;;;;5079499;28;20020;-66
2024/02/19 11:18:20;;;;;;;11.02;1.40;;;11.80;99.90;;;;;;5080512;28;20031;-68
2024/02/19 11:20:47;;;;;;;8.68;1.67;;;11.70;99.90;;;;;;5071332;28;20055;-67
2024/02/19 11:23:17;;;;;;;7.45;1.20;;;11.70;99.90;;;;;;5067337;28;20097;-68
2024/02/19 11:25:44;;;;;;;4.55;1.05;;;11.70;99.90;;;;;;5081314;28;20028;-68
2024/02/19 11:28:13;;;;;;;8.35;1.90;;;11.60;99.90;;;;;;5077843;28;20044;-67
2024/02/19 11:30:38;;;;;;;7.80;2.17;;;11.50;99.90;;;;;;5076179;28;20024;-67
2024/02/19 11:33:09;;;;;;;6.72;1.80;;;11.40;99.90;;;;;;5077965;28;20040;-69
2024/02/19 11:35:35;;;;;;;13.27;2.67;;;11.30;99.90;;;;;;5078674;28;20047;-66
2024/02/19 11:38:01;;;;;;;6.82;1.60;;;11.20;99.90;;;;;;5064952;28;20024;-68
2024/02/19 11:40:31;;;;;;;14.10;2.40;;;11.20;99.90;;;;;;5082010;28;20046;-68
2024/02/19 11:43:02;;;;;;;6.57;1.90;;;11.20;99.90;;;;;;5082304;28;20028;-67
2024/02/19 11:45:32;;;;;;;10.85;2.08;;;11.10;99.90;;;;;;5062080;28;20020;-68
2024/02/19 11:47:59;;;;;;;7.18;1.40;;;11.10;99.90;;;;;;5061582;28;20116;-69
2024/02/19 11:50:27;;;;;;;9.25;2.10;;;11.00;99.90;;;;;;5081499;28;20039;-67
2024/02/19 11:52:55;;;;;;;7.88;1.83;;;11.10;99.90;;;;;;5080046;28;20071;-66
2024/02/19 11:55:24;;;;;;;4.70;1.90;;;11.10;99.90;;;;;;5080709;28;20058;-66
2024/02/19 11:57:51;;;;;;;7.43;1.80;;;11.00;99.90;;;;;;5064551;28;20066;-67
2024/02/19 12:00:17;;;;;;;9.23;1.95;;;10.90;99.90;;;;;;5084899;28;20026;-68
2024/02/19 12:02:48;;;;;;;6.70;1.85;;;10.90;99.90;;;;;;5083979;28;20036;-67
2024/02/19 12:05:16;;;;;;;10.52;2.30;;;10.80;99.90;;;;;;5085208;28;20028;-67
2024/02/19 12:07:42;;;;;;;6.10;1.90;;;10.80;99.90;;;;;;5087700;28;20272;-67
2024/02/19 12:10:09;;;;;;;9.13;2.15;;;10.70;99.90;;;;;;5083722;28;20045;-66
2024/02/19 12:12:39;;;;;;;11.82;2.60;;;10.70;99.90;;;;;;5084950;28;20039;-66
2024/02/19 12:15:15;;;;;;;14.68;2.92;;;10.70;99.90;;;;;;5082082;28;20040;-71
2024/02/19 12:17:43;;;;;;;6.50;2.63;;;10.80;99.90;;;;;;5083160;28;20039;-68
2024/02/19 12:20:12;;;;;;;12.90;3.45;;;11.00;99.90;;;;;;5086993;28;20123;-67
2024/02/19 12:22:40;;;;;;;12.32;3.50;;;11.20;99.90;;;;;;5065855;28;20067;-68
2024/02/19 12:25:06;;;;;;;11.80;2.92;;;11.40;99.90;;;;;;5080566;28;20094;-67
2024/02/19 12:27:33;;;;;;;12.18;4.50;;;11.40;99.90;;;;;;5065927;28;20059;-67
2024/02/19 12:29:59;;;;;;;11.60;3.72;;;11.50;99.90;;;;;;5064005;28;20043;-67
2024/02/19 12:32:24;;;;;;;12.38;2.78;;;11.60;99.90;;;;;;5064178;28;20036;-67
2024/02/19 12:34:50;;;;;;;10.60;3.00;;;11.50;99.90;;;;;;5085067;28;20400;-67
2024/02/19 12:37:16;;;;;;;14.90;4.47;;;11.60;99.90;;;;;;5065350;28;20060;-68
2024/02/19 12:39:42;;;;;;;9.38;3.10;;;11.50;99.90;;;;;;5081305;28;20020;-68
2024/02/19 12:42:08;;;;;;;10.88;3.25;;;11.50;99.90;;;;;;5085899;28;20068;-67
2024/02/19 12:44:34;;;;;;;12.57;2.92;;;11.50;99.90;;;;;;5085007;28;20704;-67
2024/02/19 12:47:00;;;;;;;8.77;3.03;;;11.40;99.90;;;;;;5059294;28;20135;-67
2024/02/19 12:49:27;;;;;;;10.10;4.07;;;11.40;99.90;;;;;;5061019;28;20127;-68